Time;durP1;ratioP1;P1;durP2;ratioP2;P2;SDS_P1;SDS_P2;PMS_P1;PMS_P2;Temp;Humidity;BMP_temperature;BMP_pressure;BME280_temperature;BME280_humidity;BME280_pressure;Samples;Min_cycle;Max_cycle;Signal;HPM_P1;HPM_P2
2021/10/31 00:02:05;;;;;;;3.53;1.92;;;16.10;73.80;;;;;;4992960;28;95908;-37
2021/10/31 00:04:36;;;;;;;1.70;1.60;;;16.10;73.70;;;;;;5001934;28;95794;-39
2021/10/31 00:07:09;;;;;;;3.17;2.38;;;16.10;73.70;;;;;;5003826;28;96682;-38
2021/10/31 00:09:39;;;;;;;3.53;1.88;;;16.20;73.80;;;;;;5004337;28;95843;-38
2021/10/31 00:12:09;;;;;;;5.05;1.98;;;16.10;73.70;;;;;;4997337;28;95837;-38
2021/10/31 00:14:39;;;;;;;1.60;1.47;;;16.20;73.70;;;;;;4990016;28;95872;-38
2021/10/31 00:17:09;;;;;;;1.75;1.45;;;16.20;73.70;;;;;;4999873;28;96104;-38
2021/10/31 00:19:40;;;;;;;1.88;1.70;;;16.20;73.70;;;;;;5001263;28;95991;-38
2021/10/31 00:22:12;;;;;;;1.65;1.40;;;16.30;73.70;;;;;;5005269;28;95805;-38
2021/10/31 00:24:42;;;;;;;2.55;1.77;;;16.30;73.70;;;;;;5001062;28;95738;-38
2021/10/31 00:27:12;;;;;;;2.05;1.85;;;16.30;73.60;;;;;;5003184;28;96579;-36
2021/10/31 00:29:42;;;;;;;2.78;1.85;;;16.30;73.60;;;;;;4999212;28;97050;-37
2021/10/31 00:32:11;;;;;;;2.35;1.50;;;16.30;73.60;;;;;;5000901;28;96262;-42
2021/10/31 00:34:43;;;;;;;2.08;1.30;;;16.30;73.60;;;;;;5002959;28;95796;-36
2021/10/31 00:37:14;;;;;;;1.73;1.63;;;16.40;73.60;;;;;;5030610;27;98450;-39
2021/10/31 00:39:44;;;;;;;1.73;1.60;;;16.40;73.60;;;;;;5004827;28;95892;-38
2021/10/31 00:42:14;;;;;;;2.53;1.63;;;16.40;73.60;;;;;;5000615;28;96040;-36
2021/10/31 00:44:44;;;;;;;2.03;1.55;;;16.40;73.60;;;;;;4996233;28;95829;-38
2021/10/31 00:47:15;;;;;;;2.10;1.48;;;16.40;73.60;;;;;;4995560;28;96011;-37
2021/10/31 00:49:45;;;;;;;1.35;1.25;;;16.50;73.60;;;;;;4995695;28;95953;-38
2021/10/31 00:52:18;;;;;;;1.55;1.30;;;16.50;73.60;;;;;;4999461;28;95817;-38
2021/10/31 00:54:49;;;;;;;1.15;0.98;;;16.50;73.50;;;;;;5004885;28;95977;-38
2021/10/31 00:57:23;;;;;;;2.67;1.52;;;16.50;73.50;;;;;;5008988;28;99297;-39
2021/10/31 00:59:55;;;;;;;1.75;1.50;;;16.60;73.50;;;;;;5008399;28;98192;-38
2021/10/31 01:02:27;;;;;;;2.05;1.55;;;16.60;73.40;;;;;;5008903;28;95961;-39
2021/10/31 01:05:04;;;;;;;2.03;0.90;;;16.60;73.50;;;;;;5000185;28;97045;-38
2021/10/31 01:07:58;;;;;;;2.45;1.17;;;16.60;73.50;;;;;;5006523;28;96421;-40
2021/10/31 01:11:10;;;;;;;1.67;1.25;;;16.70;73.50;;;;;;5007507;28;95893;-40
2021/10/31 01:14:13;;;;;;;1.10;1.05;;;16.70;73.40;;;;;;4998985;28;101125;-40
2021/10/31 01:17:19;;;;;;;1.80;1.05;;;16.70;73.40;;;;;;5005635;28;95840;-39
2021/10/31 01:20:06;;;;;;;2.13;1.27;;;16.70;73.30;;;;;;4995462;28;96396;-40
2021/10/31 01:22:52;;;;;;;1.33;1.13;;;16.80;73.40;;;;;;5009027;28;95619;-38
2021/10/31 01:26:00;;;;;;;5.00;1.25;;;16.80;73.30;;;;;;5008581;28;96761;-38
2021/10/31 01:29:07;;;;;;;2.33;1.10;;;16.90;73.40;;;;;;4976550;28;96198;-36
2021/10/31 01:32:02;;;;;;;4.80;1.30;;;16.90;73.30;;;;;;5007723;28;96044;-38
2021/10/31 01:34:58;;;;;;;0.90;0.90;;;16.90;73.30;;;;;;5006525;28;95997;-37
2021/10/31 01:37:51;;;;;;;5.53;1.45;;;17.00;73.20;;;;;;4998712;27;95775;-39
2021/10/31 01:40:41;;;;;;;3.13;1.27;;;17.00;73.10;;;;;;5008093;28;95697;-35
2021/10/31 01:43:29;;;;;;;2.58;1.23;;;17.00;72.90;;;;;;5007204;28;95895;-39
2021/10/31 01:46:18;;;;;;;2.38;1.00;;;17.10;73.00;;;;;;4993446;28;95907;-39
2021/10/31 01:49:04;;;;;;;3.92;1.65;;;17.10;72.70;;;;;;5008671;28;95744;-36
2021/10/31 01:51:52;;;;;;;4.75;1.73;;;17.10;72.70;;;;;;5041147;27;95937;-43
2021/10/31 01:55:03;;;;;;;1.85;0.80;;;17.10;72.70;;;;;;5008734;28;96542;-36
2021/10/31 01:57:43;;;;;;;1.88;1.13;;;17.10;72.60;;;;;;4927772;28;97439;-38
2021/10/31 02:00:16;;;;;;;2.78;1.50;;;17.20;72.40;;;;;;4926748;28;95794;-37
2021/10/31 02:02:50;;;;;;;2.38;1.13;;;17.20;72.20;;;;;;4925404;28;96178;-39
2021/10/31 02:05:28;;;;;;;1.80;1.13;;;17.20;72.00;;;;;;4925903;28;97249;-38
2021/10/31 02:08:10;;;;;;;6.97;1.30;;;17.30;72.00;;;;;;4924797;28;95751;-37
2021/10/31 02:10:49;;;;;;;3.38;1.60;;;17.30;71.90;;;;;;4924356;28;97238;-37
2021/10/31 02:13:27;;;;;;;3.40;1.75;;;17.30;71.80;;;;;;4918895;28;98223;-39
2021/10/31 02:16:01;;;;;;;2.60;1.40;;;17.30;71.60;;;;;;4917053;28;96590;-38
2021/10/31 02:18:34;;;;;;;2.55;1.40;;;17.40;71.50;;;;;;4924953;28;97081;-39
2021/10/31 02:21:07;;;;;;;1.88;0.98;;;17.40;71.40;;;;;;4925763;28;96049;-37
2021/10/31 02:23:38;;;;;;;3.20;1.80;;;17.40;71.40;;;;;;4921970;28;95857;-37
2021/10/31 02:26:10;;;;;;;5.93;1.20;;;17.40;71.30;;;;;;4925128;28;95990;-41
2021/10/31 02:28:52;;;;;;;3.70;1.20;;;17.50;71.10;;;;;;4975271;28;98117;-39
2021/10/31 02:31:25;;;;;;;2.10;1.38;;;17.50;71.20;;;;;;5001045;28;95791;-38
2021/10/31 02:34:00;;;;;;;3.63;1.33;;;17.50;71.00;;;;;;5000612;28;95645;-39
2021/10/31 02:36:35;;;;;;;1.73;1.02;;;17.50;70.80;;;;;;5001638;28;96036;-37
2021/10/31 02:39:09;;;;;;;2.80;1.67;;;17.50;70.60;;;;;;4999852;28;96339;-40
2021/10/31 02:41:40;;;;;;;5.32;1.75;;;17.50;70.40;;;;;;4996763;28;95940;-39
2021/10/31 02:44:11;;;;;;;2.13;1.50;;;17.60;70.40;;;;;;4996369;28;95853;-35
2021/10/31 02:46:44;;;;;;;2.20;1.10;;;17.60;70.30;;;;;;5005179;28;96076;-45
2021/10/31 02:49:18;;;;;;;8.25;1.83;;;17.60;70.10;;;;;;4997439;28;98585;-36
2021/10/31 02:51:57;;;;;;;1.70;1.23;;;17.60;69.90;;;;;;5000330;28;95740;-38
2021/10/31 02:54:51;;;;;;;1.60;1.40;;;17.70;69.80;;;;;;5002145;28;95863;-38
2021/10/31 02:57:30;;;;;;;3.42;1.10;;;17.70;69.80;;;;;;5001447;28;95903;-36
2021/10/31 03:00:09;;;;;;;3.05;1.40;;;17.70;69.80;;;;;;4997516;28;96257;-38
2021/10/31 03:02:44;;;;;;;4.30;1.67;;;17.80;70.50;;;;;;5001569;28;96365;-38
2021/10/31 03:05:20;;;;;;;2.35;1.15;;;17.80;69.70;;;;;;5004876;28;95401;-39
2021/10/31 03:07:58;;;;;;;2.67;1.13;;;17.80;69.50;;;;;;5006240;28;97693;-35
2021/10/31 03:10:32;;;;;;;4.43;1.17;;;17.90;69.40;;;;;;5002931;28;96311;-38
2021/10/31 03:13:04;;;;;;;2.53;1.58;;;17.90;69.40;;;;;;5002476;28;95930;-38
2021/10/31 03:15:36;;;;;;;3.05;1.38;;;17.90;69.40;;;;;;4996972;28;96772;-38
2021/10/31 03:18:10;;;;;;;2.95;1.17;;;17.90;69.50;;;;;;5006355;28;96103;-37
2021/10/31 03:20:41;;;;;;;2.15;1.30;;;17.90;69.40;;;;;;5009469;28;95353;-35
2021/10/31 03:23:16;;;;;;;3.78;1.40;;;18.00;69.30;;;;;;5009588;28;96050;-37
2021/10/31 03:25:47;;;;;;;3.53;1.50;;;18.00;69.20;;;;;;5005022;28;96252;-38
2021/10/31 03:28:20;;;;;;;4.45;1.55;;;18.00;70.00;;;;;;5006627;28;96534;-38
2021/10/31 03:30:51;;;;;;;;;;;18.10;69.50;;;;;;5007321;28;95856;-36
2021/10/31 03:33:29;;;;;;;3.65;1.90;;;18.10;69.30;;;;;;5006648;28;95653;-38
2021/10/31 03:36:01;;;;;;;4.00;1.88;;;18.10;69.60;;;;;;5006271;28;95305;-37
2021/10/31 03:38:32;;;;;;;2.22;1.48;;;18.20;69.70;;;;;;5007657;28;95838;-36
2021/10/31 03:41:04;;;;;;;3.08;1.88;;;18.20;69.70;;;;;;5004219;28;95841;-34
2021/10/31 03:43:35;;;;;;;3.55;1.70;;;18.20;69.80;;;;;;5001041;28;95807;-36
2021/10/31 03:46:06;;;;;;;4.32;1.60;;;18.20;69.70;;;;;;5000675;28;96033;-38
2021/10/31 03:48:39;;;;;;;;;;;18.20;69.60;;;;;;5008586;28;96746;-36
2021/10/31 03:51:12;;;;;;;2.65;1.70;;;18.20;69.40;;;;;;5007730;28;95613;-37
2021/10/31 03:53:46;;;;;;;4.85;1.70;;;18.20;69.40;;;;;;5012453;28;95756;-37
2021/10/31 03:56:20;;;;;;;3.50;1.58;;;18.30;69.50;;;;;;5005023;28;95678;-36
2021/10/31 03:58:53;;;;;;;5.88;2.00;;;18.30;69.60;;;;;;5010096;28;96519;-38
2021/10/31 04:01:28;;;;;;;2.85;1.50;;;18.30;69.60;;;;;;5010438;28;95863;-37
2021/10/31 04:04:01;;;;;;;3.95;1.75;;;18.40;69.80;;;;;;5005780;28;95954;-37
2021/10/31 04:06:32;;;;;;;2.65;1.70;;;18.50;69.80;;;;;;5009084;28;95551;-39
2021/10/31 04:09:03;;;;;;;1.98;1.70;;;18.50;69.90;;;;;;5015876;28;96745;-38
2021/10/31 04:11:34;;;;;;;1.95;1.73;;;18.70;70.00;;;;;;5009278;28;96088;-38
2021/10/31 04:14:06;;;;;;;1.92;1.70;;;18.70;70.10;;;;;;4999327;28;97120;-45
2021/10/31 04:16:38;;;;;;;2.95;1.95;;;18.80;70.20;;;;;;4999689;28;95926;-43
2021/10/31 04:19:13;;;;;;;3.22;2.13;;;18.90;69.80;;;;;;5003527;28;96072;-43
2021/10/31 04:21:44;;;;;;;3.03;2.00;;;18.90;69.80;;;;;;5001184;28;95755;-44
2021/10/31 04:24:17;;;;;;;;;;;18.90;69.20;;;;;;5005424;28;97948;-43
2021/10/31 04:26:50;;;;;;;3.10;2.00;;;18.90;67.50;;;;;;5009830;28;95699;-44
2021/10/31 04:29:23;;;;;;;3.33;1.95;;;18.80;66.10;;;;;;5008407;28;96136;-44
2021/10/31 04:31:56;;;;;;;3.13;1.88;;;18.80;66.30;;;;;;5000777;28;95969;-45
2021/10/31 04:34:29;;;;;;;1.92;1.40;;;18.80;65.70;;;;;;5000345;28;98714;-44
2021/10/31 04:37:03;;;;;;;3.47;1.83;;;18.90;65.90;;;;;;5002568;28;96463;-44
2021/10/31 04:39:34;;;;;;;3.15;2.17;;;19.00;65.70;;;;;;4999914;28;95882;-44
2021/10/31 04:42:07;;;;;;;4.60;2.15;;;19.00;65.60;;;;;;4998272;28;97464;-44
2021/10/31 04:44:39;;;;;;;4.28;2.50;;;19.00;65.30;;;;;;4996204;28;95776;-44
2021/10/31 04:47:11;;;;;;;7.63;2.58;;;19.00;65.20;;;;;;4999201;28;95734;-44
2021/10/31 04:49:44;;;;;;;3.63;2.33;;;19.10;64.90;;;;;;5003005;28;95887;-43
2021/10/31 04:52:18;;;;;;;4.53;3.17;;;19.10;64.80;;;;;;4996937;28;96089;-44
2021/10/31 04:54:51;;;;;;;2.63;2.25;;;19.20;64.40;;;;;;5005505;28;96856;-44
2021/10/31 04:57:25;;;;;;;5.75;2.63;;;19.20;63.70;;;;;;5007447;28;95862;-43
2021/10/31 04:59:58;;;;;;;3.47;2.80;;;19.20;63.80;;;;;;5012329;28;96236;-44
2021/10/31 05:02:33;;;;;;;4.93;2.30;;;19.20;63.60;;;;;;5009027;28;96169;-44
2021/10/31 05:05:08;;;;;;;3.50;2.50;;;19.20;63.00;;;;;;5010608;28;95975;-43
2021/10/31 05:07:40;;;;;;;7.28;2.10;;;19.20;63.00;;;;;;5009189;28;95528;-45
2021/10/31 05:10:11;;;;;;;1.88;1.70;;;19.20;63.10;;;;;;5010224;28;96602;-44
2021/10/31 05:12:43;;;;;;;2.53;1.95;;;19.20;62.70;;;;;;5007323;27;97866;-45
2021/10/31 05:15:18;;;;;;;2.22;1.60;;;19.30;62.80;;;;;;4995684;28;95434;-45
2021/10/31 05:17:53;;;;;;;2.30;1.58;;;19.30;62.10;;;;;;5009895;28;96828;-45
2021/10/31 05:20:26;;;;;;;2.88;1.67;;;19.30;60.90;;;;;;5009334;28;97002;-46
2021/10/31 05:22:57;;;;;;;3.53;1.50;;;19.40;61.00;;;;;;5007365;28;95924;-44
2021/10/31 05:25:28;;;;;;;2.50;1.65;;;19.40;59.10;;;;;;5007703;28;95736;-45
2021/10/31 05:27:59;;;;;;;3.05;1.67;;;19.40;59.10;;;;;;5009736;28;96619;-46
2021/10/31 05:30:30;;;;;;;3.17;1.30;;;19.40;58.70;;;;;;5009552;28;96347;-45
2021/10/31 05:33:02;;;;;;;2.00;1.30;;;19.40;58.80;;;;;;5015150;27;97702;-45
2021/10/31 05:35:33;;;;;;;2.42;1.60;;;19.40;56.10;;;;;;5012475;28;95680;-42
2021/10/31 05:38:13;;;;;;;3.80;1.58;;;19.40;55.50;;;;;;5007020;28;95955;-43
2021/10/31 05:40:47;;;;;;;2.35;1.67;;;19.40;57.00;;;;;;5006797;28;96566;-43
2021/10/31 05:43:19;;;;;;;1.25;1.15;;;19.40;56.50;;;;;;5004893;28;95829;-43
2021/10/31 05:45:51;;;;;;;2.55;1.27;;;19.50;56.60;;;;;;5010200;28;95763;-45
2021/10/31 05:48:23;;;;;;;;;;;19.60;56.90;;;;;;5010558;28;95348;-44
2021/10/31 05:50:59;;;;;;;2.33;1.50;;;19.60;57.10;;;;;;5012526;28;96454;-45
2021/10/31 05:53:33;;;;;;;2.97;2.05;;;19.70;57.10;;;;;;5011474;28;96801;-44
2021/10/31 05:56:09;;;;;;;2.33;2.00;;;19.70;56.60;;;;;;5010422;28;95735;-43
2021/10/31 05:58:43;;;;;;;2.10;1.77;;;19.80;56.50;;;;;;5006822;28;97142;-44
2021/10/31 06:01:16;;;;;;;2.65;1.73;;;19.80;56.10;;;;;;5010251;28;96551;-44
2021/10/31 06:03:49;;;;;;;4.03;2.22;;;19.80;55.40;;;;;;5006824;28;96535;-43
2021/10/31 06:06:25;;;;;;;3.20;1.58;;;19.80;55.80;;;;;;5011970;28;96209;-45
2021/10/31 06:08:58;;;;;;;1.98;1.58;;;19.80;55.70;;;;;;5022670;27;96858;-44
2021/10/31 06:11:34;;;;;;;2.72;1.63;;;19.80;54.90;;;;;;5009134;28;97365;-45
2021/10/31 06:14:05;;;;;;;2.53;2.05;;;19.80;54.80;;;;;;4996366;28;96018;-45
2021/10/31 06:16:37;;;;;;;1.77;1.50;;;19.80;54.10;;;;;;5002691;28;96802;-44
2021/10/31 06:19:10;;;;;;;1.88;1.60;;;19.80;54.50;;;;;;5008916;28;95855;-44
2021/10/31 06:21:41;;;;;;;4.78;2.00;;;19.90;54.60;;;;;;5005313;28;97995;-44
2021/10/31 06:24:15;;;;;;;3.20;1.70;;;19.90;55.60;;;;;;5006931;28;96041;-45
2021/10/31 06:26:49;;;;;;;2.63;1.77;;;20.00;55.10;;;;;;5014334;28;95653;-43
2021/10/31 06:29:23;;;;;;;2.63;1.40;;;20.00;55.30;;;;;;5007463;28;95389;-42
2021/10/31 06:31:55;;;;;;;2.05;1.83;;;20.10;55.50;;;;;;5007165;28;96688;-42
2021/10/31 06:34:34;;;;;;;1.85;1.42;;;20.10;55.00;;;;;;5010747;28;98177;-43
2021/10/31 06:37:07;;;;;;;2.17;1.45;;;20.10;55.40;;;;;;5008065;28;97019;-42
2021/10/31 06:39:38;;;;;;;3.65;2.33;;;20.20;55.70;;;;;;5011889;28;97388;-43
2021/10/31 06:42:09;;;;;;;3.47;1.65;;;20.20;55.80;;;;;;5004436;28;96501;-43
2021/10/31 06:44:41;;;;;;;4.97;1.65;;;20.20;56.10;;;;;;5007102;28;95585;-43
2021/10/31 06:47:20;;;;;;;5.45;1.80;;;20.20;56.30;;;;;;5008244;28;95886;-43
2021/10/31 06:49:52;;;;;;;2.97;1.70;;;20.20;56.40;;;;;;5013039;28;95912;-45
2021/10/31 06:52:29;;;;;;;6.47;2.42;;;20.20;56.60;;;;;;5008346;28;96115;-44
2021/10/31 06:55:01;;;;;;;3.92;1.98;;;20.20;56.80;;;;;;5007920;28;96061;-44
2021/10/31 06:57:37;;;;;;;6.85;1.90;;;20.20;56.90;;;;;;5043606;27;95916;-44
2021/10/31 07:00:11;;;;;;;3.72;1.30;;;20.30;57.30;;;;;;5009628;28;95838;-44
2021/10/31 07:02:46;;;;;;;6.35;1.88;;;20.20;57.40;;;;;;5006370;28;96048;-44
2021/10/31 07:05:19;;;;;;;3.20;1.40;;;20.20;57.40;;;;;;5006263;28;95721;-43
2021/10/31 07:07:50;;;;;;;3.70;1.42;;;20.20;57.70;;;;;;5011141;28;96907;-44
2021/10/31 07:10:23;;;;;;;3.90;1.25;;;20.20;57.70;;;;;;5006522;28;97068;-44
2021/10/31 07:12:56;;;;;;;3.50;1.52;;;20.20;57.80;;;;;;5002982;28;96455;-44
2021/10/31 07:15:28;;;;;;;2.83;1.40;;;20.20;58.00;;;;;;4993344;28;96198;-44
2021/10/31 07:18:03;;;;;;;3.85;1.50;;;20.20;58.20;;;;;;5006668;28;95268;-42
2021/10/31 07:20:38;;;;;;;5.93;1.77;;;20.20;58.20;;;;;;5008878;28;95780;-43
2021/10/31 07:23:10;;;;;;;4.07;1.83;;;20.20;58.30;;;;;;5009360;28;95987;-43
2021/10/31 07:25:43;;;;;;;4.60;1.75;;;20.20;58.40;;;;;;5011844;28;95664;-44
2021/10/31 07:28:17;;;;;;;5.38;1.63;;;20.20;58.50;;;;;;5010480;28;96590;-43
2021/10/31 07:30:52;;;;;;;7.93;1.90;;;20.20;58.60;;;;;;5012100;28;96159;-42
2021/10/31 07:33:28;;;;;;;5.10;1.88;;;20.20;58.60;;;;;;5011434;28;97061;-43
2021/10/31 07:36:01;;;;;;;10.13;1.83;;;20.20;58.70;;;;;;5009615;28;96028;-43
2021/10/31 07:38:34;;;;;;;4.38;2.13;;;20.20;58.80;;;;;;5009839;28;95672;-42
2021/10/31 07:41:07;;;;;;;17.83;4.20;;;20.20;58.90;;;;;;5014561;28;96488;-43
2021/10/31 07:43:39;;;;;;;13.55;3.70;;;20.20;59.00;;;;;;5013016;27;96040;-43
2021/10/31 07:46:14;;;;;;;12.93;4.93;;;20.20;59.10;;;;;;5009775;28;97778;-45
2021/10/31 07:48:47;;;;;;;14.10;4.68;;;20.20;59.00;;;;;;5012021;28;95649;-44
2021/10/31 07:51:23;;;;;;;11.27;4.22;;;20.20;59.20;;;;;;5011557;28;96091;-44
2021/10/31 07:54:02;;;;;;;9.55;3.65;;;20.10;59.20;;;;;;5010047;28;95956;-45
2021/10/31 07:56:36;;;;;;;14.30;4.32;;;20.10;59.20;;;;;;5009260;28;95784;-44
2021/10/31 07:59:13;;;;;;;6.22;2.78;;;20.20;59.60;;;;;;5008637;28;95348;-43
2021/10/31 08:01:51;;;;;;;7.40;2.38;;;20.10;59.40;;;;;;5011045;28;97110;-44
2021/10/31 08:04:24;;;;;;;9.68;2.92;;;20.10;59.30;;;;;;5005783;28;95942;-45
2021/10/31 08:06:58;;;;;;;12.57;2.65;;;20.00;59.40;;;;;;5012004;27;95742;-44
2021/10/31 08:09:54;;;;;;;11.38;2.63;;;20.00;59.30;;;;;;5006634;28;96884;-45
2021/10/31 08:12:24;;;;;;;8.32;2.45;;;20.00;59.40;;;;;;4965166;28;95559;-44
2021/10/31 08:14:54;;;;;;;5.10;1.80;;;19.90;59.30;;;;;;4950102;28;96658;-44
2021/10/31 08:17:25;;;;;;;5.57;1.63;;;19.90;59.30;;;;;;4961663;28;97960;-43
2021/10/31 08:19:57;;;;;;;8.43;2.15;;;19.80;59.20;;;;;;4963952;28;95956;-42
2021/10/31 08:22:30;;;;;;;7.28;2.20;;;19.80;59.20;;;;;;4957515;28;96325;-43
2021/10/31 08:25:02;;;;;;;3.72;1.85;;;19.70;59.10;;;;;;4963466;28;96073;-44
2021/10/31 08:27:35;;;;;;;7.60;2.20;;;19.70;59.10;;;;;;4935235;28;95963;-44
2021/10/31 08:30:06;;;;;;;5.93;2.45;;;19.60;59.10;;;;;;4965094;28;95831;-44
2021/10/31 08:32:45;;;;;;;6.38;2.28;;;19.60;59.20;;;;;;4964459;28;95868;-44
2021/10/31 08:35:16;;;;;;;3.25;1.73;;;19.60;59.10;;;;;;4947391;28;96475;-42
2021/10/31 08:37:46;;;;;;;;;;;19.50;59.20;;;;;;4948669;28;95967;-44
2021/10/31 08:40:17;;;;;;;7.78;1.70;;;19.50;59.30;;;;;;4962045;28;95937;-42
2021/10/31 08:42:48;;;;;;;;;;;19.40;59.40;;;;;;4962212;28;95960;-46
2021/10/31 08:45:18;;;;;;;5.72;1.52;;;19.40;59.50;;;;;;4949727;28;98241;-45
2021/10/31 08:47:48;;;;;;;5.53;1.73;;;19.40;59.60;;;;;;4966881;28;95899;-45
2021/10/31 08:50:22;;;;;;;5.97;2.08;;;19.30;59.70;;;;;;4996616;28;95791;-45
2021/10/31 08:52:57;;;;;;;12.45;2.10;;;19.30;59.70;;;;;;5006001;28;95788;-45
2021/10/31 08:55:28;;;;;;;6.57;1.60;;;19.30;59.70;;;;;;5007633;28;95887;-43
2021/10/31 08:58:00;;;;;;;6.63;1.60;;;19.10;59.60;;;;;;5004021;28;95763;-44
2021/10/31 09:00:32;;;;;;;5.85;1.45;;;19.10;59.80;;;;;;5004067;28;97601;-44
2021/10/31 09:03:05;;;;;;;9.07;1.65;;;19.10;59.90;;;;;;5004270;28;95352;-42
2021/10/31 09:05:41;;;;;;;4.93;1.42;;;19.00;60.00;;;;;;5004529;28;96163;-43
2021/10/31 09:08:12;;;;;;;4.40;1.40;;;19.00;60.00;;;;;;5006172;28;95707;-44
2021/10/31 09:10:47;;;;;;;2.75;1.40;;;19.00;60.10;;;;;;4998296;28;95358;-44
2021/10/31 09:13:17;;;;;;;4.27;1.13;;;18.90;59.00;;;;;;5029476;27;96013;-44
2021/10/31 09:15:48;;;;;;;6.15;1.67;;;18.90;60.40;;;;;;4993491;28;96156;-45
2021/10/31 09:18:20;;;;;;;6.07;1.63;;;18.90;60.50;;;;;;5005948;28;97487;-44
2021/10/31 09:20:50;;;;;;;;;;;18.90;60.50;;;;;;4999743;28;95931;-44
2021/10/31 09:23:21;;;;;;;9.65;1.73;;;18.90;60.50;;;;;;5000422;28;95804;-48
2021/10/31 09:25:52;;;;;;;4.45;1.92;;;18.90;60.60;;;;;;5006584;28;96445;-44
2021/10/31 09:28:25;;;;;;;5.50;1.75;;;18.80;60.70;;;;;;4997502;28;96036;-44
2021/10/31 09:30:56;;;;;;;4.53;2.05;;;18.80;60.90;;;;;;4995158;28;96219;-43
2021/10/31 09:33:28;;;;;;;5.38;1.60;;;18.70;61.00;;;;;;5005900;28;96299;-44
2021/10/31 09:35:59;;;;;;;4.40;2.15;;;18.70;61.30;;;;;;5033129;27;96517;-42
2021/10/31 09:38:31;;;;;;;4.80;1.63;;;18.70;61.50;;;;;;5005137;28;95765;-43
2021/10/31 09:41:02;;;;;;;6.68;1.65;;;18.70;61.60;;;;;;5001443;28;95842;-44
2021/10/31 09:43:44;;;;;;;4.27;2.00;;;18.60;61.90;;;;;;4995954;28;95826;-43
2021/10/31 09:46:17;;;;;;;3.75;1.58;;;18.60;61.90;;;;;;5004076;27;96007;-44
2021/10/31 09:48:51;;;;;;;4.90;1.80;;;18.50;62.20;;;;;;5017535;27;97778;-45
2021/10/31 09:51:23;;;;;;;4.05;1.70;;;18.50;62.30;;;;;;5007049;28;95992;-43
2021/10/31 09:53:59;;;;;;;4.57;1.85;;;18.40;62.30;;;;;;5009500;28;95444;-43
2021/10/31 09:56:33;;;;;;;3.90;1.75;;;18.40;62.50;;;;;;5009306;28;96334;-44
2021/10/31 09:59:11;;;;;;;3.45;1.80;;;18.30;62.70;;;;;;5006672;28;95814;-43
2021/10/31 10:04:50;;;;;;;5.65;2.05;;;18.30;63.10;;;;;;5008405;28;95965;-44
2021/10/31 10:07:26;;;;;;;11.85;2.58;;;18.20;63.00;;;;;;5007702;28;96710;-44
2021/10/31 10:10:00;;;;;;;6.18;2.50;;;18.20;63.10;;;;;;5010203;28;97266;-45
2021/10/31 10:12:32;;;;;;;7.40;2.65;;;18.20;62.70;;;;;;5027083;27;95750;-45
2021/10/31 10:18:54;;;;;;;5.40;2.38;;;17.90;63.30;;;;;;4982408;27;101695;-51
2021/10/31 10:21:30;;;;;;;4.82;2.50;;;17.90;63.80;;;;;;4993633;28;95925;-47
2021/10/31 10:24:19;;;;;;;9.30;2.40;;;17.90;63.70;;;;;;4983910;28;96137;-52
2021/10/31 10:26:54;;;;;;;4.13;2.20;;;17.90;63.80;;;;;;4994477;28;96411;-48
2021/10/31 10:29:37;;;;;;;4.68;2.25;;;17.90;63.90;;;;;;4993533;28;96127;-56
2021/10/31 10:32:14;;;;;;;4.20;2.40;;;17.90;64.00;;;;;;4991900;28;96447;-53
2021/10/31 10:34:49;;;;;;;7.90;2.55;;;17.80;64.00;;;;;;5012450;27;96053;-62
2021/10/31 10:37:32;;;;;;;4.03;2.28;;;17.80;64.10;;;;;;5000588;28;98633;-60
2021/10/31 10:40:05;;;;;;;4.20;2.25;;;17.80;64.20;;;;;;5025914;27;96635;-61
2021/10/31 10:42:38;;;;;;;7.00;2.20;;;17.70;64.30;;;;;;5009801;27;95819;-64
2021/10/31 10:45:12;;;;;;;4.22;2.05;;;17.70;64.40;;;;;;4993132;28;97796;-64
2021/10/31 10:47:53;;;;;;;4.72;2.30;;;17.60;64.00;;;;;;4993649;28;97571;-64
2021/10/31 10:50:25;;;;;;;2.95;1.60;;;17.50;64.20;;;;;;4997019;28;97163;-65
2021/10/31 10:53:01;;;;;;;3.28;2.10;;;17.40;64.40;;;;;;4996292;28;95667;-65
2021/10/31 10:55:36;;;;;;;2.97;2.00;;;17.40;64.50;;;;;;4999188;28;95340;-64
2021/10/31 10:58:15;;;;;;;3.50;2.10;;;17.30;64.70;;;;;;4990946;28;96134;-67
2021/10/31 11:00:50;;;;;;;5.88;2.60;;;17.30;65.00;;;;;;5001464;28;95317;-64
2021/10/31 11:03:30;;;;;;;4.65;2.00;;;17.20;65.00;;;;;;4998973;28;95906;-65
2021/10/31 11:06:05;;;;;;;3.50;2.10;;;17.20;65.20;;;;;;5000634;28;95727;-64
2021/10/31 11:08:45;;;;;;;4.45;2.40;;;17.10;65.30;;;;;;5012398;27;98481;-65
2021/10/31 11:11:16;;;;;;;2.75;2.08;;;17.10;65.50;;;;;;4999529;28;96532;-67
2021/10/31 11:13:51;;;;;;;;;;;17.10;65.70;;;;;;5012656;27;95951;-66
2021/10/31 11:16:23;;;;;;;2.85;1.77;;;17.10;65.80;;;;;;4999055;28;95522;-67
2021/10/31 11:18:55;;;;;;;4.13;2.03;;;17.10;65.90;;;;;;4996327;28;96146;-64
2021/10/31 11:21:27;;;;;;;2.47;2.05;;;17.00;66.10;;;;;;4994066;28;95880;-64
2021/10/31 11:24:02;;;;;;;5.55;2.13;;;17.00;66.10;;;;;;5007914;27;95399;-64
2021/10/31 11:26:39;;;;;;;2.65;1.67;;;17.00;66.40;;;;;;4995238;28;96043;-67
2021/10/31 11:29:13;;;;;;;5.97;2.67;;;17.10;66.20;;;;;;4988760;28;96365;-67
2021/10/31 11:31:45;;;;;;;3.97;2.25;;;17.00;66.10;;;;;;4983413;28;95783;-67
2021/10/31 11:34:15;;;;;;;3.93;2.40;;;17.00;66.40;;;;;;4986147;28;95295;-64
2021/10/31 11:36:46;;;;;;;4.28;2.60;;;17.00;66.30;;;;;;4981756;28;95891;-68
2021/10/31 11:39:16;;;;;;;2.80;2.10;;;17.00;66.10;;;;;;4985968;28;96360;-64
2021/10/31 11:41:48;;;;;;;5.75;2.42;;;16.90;66.10;;;;;;4981311;28;95506;-64
2021/10/31 11:44:30;;;;;;;4.03;2.40;;;16.90;66.40;;;;;;5017780;27;95681;-64
2021/10/31 11:47:11;;;;;;;3.50;2.03;;;16.90;66.40;;;;;;4984493;28;95405;-64
2021/10/31 11:50:15;;;;;;;3.78;2.28;;;16.90;66.20;;;;;;4982686;28;96061;-67
2021/10/31 11:52:52;;;;;;;3.00;2.38;;;16.90;66.20;;;;;;4984476;28;95699;-65
2021/10/31 11:55:30;;;;;;;3.58;2.40;;;16.80;66.20;;;;;;5001029;28;95760;-68
2021/10/31 11:58:31;;;;;;;5.45;2.60;;;16.70;66.10;;;;;;4983221;28;95756;-63
2021/10/31 12:01:20;;;;;;;3.83;2.20;;;16.70;66.30;;;;;;4989295;28;95952;-64
2021/10/31 12:03:57;;;;;;;3.35;2.08;;;16.70;66.50;;;;;;5010290;27;95710;-65
2021/10/31 12:06:42;;;;;;;5.78;2.50;;;16.60;66.20;;;;;;4980255;28;98196;-66
2021/10/31 12:09:27;;;;;;;4.13;2.25;;;16.60;66.00;;;;;;4984618;28;99164;-66
2021/10/31 12:12:04;;;;;;;5.07;3.72;;;16.50;65.90;;;;;;4987564;28;95597;-66
2021/10/31 12:14:53;;;;;;;8.75;4.35;;;16.40;66.30;;;;;;4986547;28;95832;-63
2021/10/31 12:17:27;;;;;;;4.03;2.90;;;16.40;66.40;;;;;;4985771;28;96733;-63
2021/10/31 12:19:58;;;;;;;4.53;2.92;;;16.30;66.60;;;;;;4983118;28;95654;-63
2021/10/31 12:22:31;;;;;;;6.10;3.17;;;16.30;66.40;;;;;;4983514;28;96075;-63
2021/10/31 12:25:13;;;;;;;6.90;3.50;;;16.30;66.40;;;;;;4984399;28;96216;-63
2021/10/31 12:27:52;;;;;;;5.40;3.17;;;16.20;66.50;;;;;;4985034;28;95159;-64
2021/10/31 12:30:32;;;;;;;7.40;3.75;;;16.20;66.50;;;;;;4990019;28;95589;-63
2021/10/31 12:33:13;;;;;;;5.05;3.20;;;16.20;66.60;;;;;;4988351;28;96179;-63
2021/10/31 12:35:48;;;;;;;6.90;3.92;;;16.10;66.70;;;;;;4984550;28;96173;-66
2021/10/31 12:38:24;;;;;;;6.30;3.40;;;16.10;66.70;;;;;;4984159;28;96090;-63
2021/10/31 12:41:18;;;;;;;5.38;3.22;;;16.10;66.80;;;;;;5004680;28;95321;-66
2021/10/31 12:43:54;;;;;;;7.07;3.95;;;16.00;66.80;;;;;;4988587;28;96647;-66
2021/10/31 12:46:30;;;;;;;5.18;3.78;;;16.00;66.90;;;;;;4987608;28;95837;-68
2021/10/31 12:49:03;;;;;;;7.88;3.95;;;16.00;66.90;;;;;;4987294;28;95607;-65
2021/10/31 12:52:01;;;;;;;4.28;3.80;;;15.90;66.90;;;;;;4989325;28;95220;-65
2021/10/31 12:54:36;;;;;;;5.57;3.50;;;15.90;66.90;;;;;;4983632;28;96631;-67
2021/10/31 12:57:12;;;;;;;4.28;3.25;;;15.90;66.90;;;;;;4990329;28;95747;-65
2021/10/31 12:59:48;;;;;;;8.23;4.20;;;15.80;67.10;;;;;;4984469;28;95871;-67
2021/10/31 13:02:22;;;;;;;5.97;3.97;;;15.80;67.20;;;;;;4990209;28;95247;-65
2021/10/31 13:05:08;;;;;;;5.82;3.80;;;15.70;67.20;;;;;;4985376;28;96683;-67
2021/10/31 13:07:57;;;;;;;4.72;2.95;;;15.70;67.40;;;;;;4987417;28;96042;-65
2021/10/31 13:10:31;;;;;;;7.30;4.32;;;15.70;67.50;;;;;;4997750;28;96842;-64
2021/10/31 13:13:09;;;;;;;6.40;4.03;;;15.70;67.60;;;;;;5013742;27;95351;-64
2021/10/31 13:15:44;;;;;;;8.10;4.68;;;15.60;67.70;;;;;;4990209;28;96379;-65
2021/10/31 13:18:20;;;;;;;7.88;4.70;;;15.70;67.80;;;;;;4985275;28;96419;-65
2021/10/31 13:20:59;;;;;;;5.50;4.35;;;15.60;67.90;;;;;;5000758;28;95458;-65
2021/10/31 13:23:34;;;;;;;8.13;4.78;;;15.60;68.10;;;;;;4980228;28;95900;-65
2021/10/31 13:26:07;;;;;;;7.97;4.13;;;15.60;68.10;;;;;;4977299;28;97981;-66
2021/10/31 13:28:41;;;;;;;9.48;4.20;;;15.60;68.20;;;;;;4985888;28;96038;-67
2021/10/31 13:31:15;;;;;;;5.25;3.55;;;15.70;69.10;;;;;;4985911;28;95734;-67
2021/10/31 13:33:55;;;;;;;6.07;3.95;;;15.80;69.30;;;;;;4997388;28;95429;-66
2021/10/31 13:36:36;;;;;;;4.45;3.63;;;15.90;69.30;;;;;;4986862;28;96067;-65
2021/10/31 13:39:19;;;;;;;7.05;3.92;;;16.00;69.20;;;;;;4985170;28;97244;-66